createdAt,value
2022-09-16T00:01:18.632Z,3.47
2022-09-16T00:03:21.804Z,3.58
2022-09-16T00:05:27.107Z,4.38
2022-09-16T00:07:30.122Z,5.03
2022-09-16T00:09:34.574Z,5.10
2022-09-16T00:11:36.822Z,5.80
2022-09-16T00:13:39.206Z,6.68
2022-09-16T00:15:46.272Z,5.32
2022-09-16T00:17:48.303Z,5.00
2022-09-16T00:19:51.146Z,8.65
2022-09-16T00:21:53.146Z,3.45
2022-09-16T00:23:56.419Z,3.28
2022-09-16T00:25:58.527Z,7.35
2022-09-16T00:28:00.615Z,3.65
2022-09-16T00:30:02.790Z,3.83
2022-09-16T00:32:08.148Z,4.40
2022-09-16T00:34:10.185Z,5.35
2022-09-16T00:36:20.157Z,5.05
2022-09-16T00:38:22.184Z,7.40
2022-09-16T00:40:24.349Z,4.40
2022-09-16T00:42:26.570Z,4.43
2022-09-16T00:45:05.780Z,5.35
2022-09-16T00:47:07.891Z,5.85
2022-09-16T00:49:22.408Z,5.38
2022-09-16T00:51:25.746Z,4.78
2022-09-16T00:53:42.756Z,3.53
2022-09-16T00:55:46.278Z,5.13
2022-09-16T00:57:49.352Z,5.18
2022-09-16T00:59:55.768Z,5.00
2022-09-16T01:02:05.293Z,7.28
2022-09-16T01:04:18.355Z,4.38
2022-09-16T01:06:22.556Z,4.10
2022-09-16T01:08:25.365Z,5.63
2022-09-16T01:10:27.654Z,3.05
2022-09-16T01:12:34.296Z,6.30
2022-09-16T01:14:55.182Z,7.07
2022-09-16T01:17:43.880Z,8.52
2022-09-16T01:20:04.640Z,4.60
2022-09-16T01:22:06.911Z,5.13
2022-09-16T01:24:33.735Z,4.20
2022-09-16T01:26:44.736Z,4.75
2022-09-16T01:29:08.121Z,7.97
2022-09-16T01:31:29.548Z,4.20
2022-09-16T01:33:59.915Z,5.72
2022-09-16T01:36:42.820Z,7.38
2022-09-16T01:39:05.331Z,5.18
2022-09-16T01:41:19.464Z,5.90
2022-09-16T01:43:28.879Z,7.50
2022-09-16T01:45:40.274Z,4.68
2022-09-16T01:48:27.793Z,4.88
2022-09-16T01:50:33.967Z,4.15
2022-09-16T01:52:38.778Z,3.58
2022-09-16T01:54:55.034Z,3.72
2022-09-16T01:57:18.520Z,5.47
2022-09-16T01:59:34.371Z,8.23
2022-09-16T02:01:57.446Z,6.15
2022-09-16T02:04:07.189Z,4.70
2022-09-16T02:06:31.825Z,6.07
2022-09-16T02:08:50.078Z,3.67
2022-09-16T02:10:58.567Z,5.30
2022-09-16T02:13:09.514Z,3.28
2022-09-16T02:15:18.943Z,9.73
2022-09-16T02:17:25.695Z,4.45
2022-09-16T02:19:37.434Z,4.20
2022-09-16T02:21:45.633Z,5.38
2022-09-16T02:23:53.583Z,4.25
2022-09-16T02:25:57.610Z,6.95
2022-09-16T02:28:05.539Z,2.42
2022-09-16T02:30:17.235Z,5.07
2022-09-16T02:32:22.792Z,7.13
2022-09-16T02:34:32.828Z,6.90
2022-09-16T02:36:38.245Z,7.00
2022-09-16T02:38:47.786Z,4.50
2022-09-16T02:40:59.977Z,5.72
2022-09-16T02:43:03.374Z,4.10
2022-09-16T02:45:05.981Z,4.85
2022-09-16T02:47:47.291Z,4.47
2022-09-16T02:50:02.003Z,3.17
2022-09-16T02:52:13.174Z,4.35
2022-09-16T02:54:24.717Z,9.30
2022-09-16T02:56:37.841Z,3.03
2022-09-16T02:58:40.055Z,4.32
2022-09-16T03:00:47.724Z,4.93
2022-09-16T03:02:50.159Z,3.67
2022-09-16T03:04:52.810Z,3.28
2022-09-16T03:06:54.986Z,3.85
2022-09-16T03:09:00.706Z,4.43
2022-09-16T03:11:35.162Z,5.63
2022-09-16T03:13:55.289Z,3.58
2022-09-16T03:16:46.096Z,4.22
2022-09-16T03:18:56.623Z,5.97
2022-09-16T03:21:30.527Z,7.30
2022-09-16T03:23:36.378Z,3.50
2022-09-16T03:26:04.394Z,3.70
2022-09-16T03:28:14.302Z,3.92
2022-09-16T03:30:16.749Z,4.68
2022-09-16T03:32:28.500Z,5.65
2022-09-16T03:34:48.843Z,4.70
2022-09-16T03:36:57.160Z,5.03
2022-09-16T03:39:01.896Z,5.80
2022-09-16T03:41:07.458Z,6.45
2022-09-16T03:43:12.960Z,4.68
2022-09-16T03:45:17.584Z,2.95
2022-09-16T03:47:19.743Z,3.38
2022-09-16T03:49:21.987Z,6.70
2022-09-16T03:51:25.018Z,4.60
2022-09-16T03:53:27.163Z,5.97
2022-09-16T03:55:29.427Z,8.38
2022-09-16T03:57:32.265Z,6.90
2022-09-16T03:59:34.405Z,5.65
2022-09-16T04:01:36.625Z,6.53
2022-09-16T04:03:39.121Z,6.07
2022-09-16T04:05:41.354Z,6.22
2022-09-16T04:07:43.268Z,4.90
2022-09-16T04:09:45.283Z,5.47
2022-09-16T04:11:47.317Z,7.80
2022-09-16T04:13:49.512Z,3.60
2022-09-16T04:15:52.398Z,5.60
2022-09-16T04:17:56.405Z,5.38
2022-09-16T04:19:58.928Z,3.38
2022-09-16T04:22:01.223Z,4.85
2022-09-16T04:24:03.542Z,5.43
2022-09-16T04:26:05.779Z,5.85
2022-09-16T04:28:09.034Z,5.25
2022-09-16T04:30:12.067Z,5.82
2022-09-16T04:32:14.188Z,4.85
2022-09-16T04:34:16.317Z,7.63
2022-09-16T04:36:20.280Z,8.90
2022-09-16T04:38:22.426Z,6.63
2022-09-16T04:40:24.994Z,6.47
2022-09-16T04:42:27.024Z,11.07
2022-09-16T04:44:30.420Z,8.30
2022-09-16T04:46:32.777Z,5.25
2022-09-16T04:48:34.917Z,7.78
2022-09-16T04:50:36.857Z,6.55
2022-09-16T04:52:39.188Z,6.03
2022-09-16T04:54:41.289Z,5.22
2022-09-16T04:56:43.471Z,4.47
2022-09-16T04:58:49.869Z,6.72
2022-09-16T05:00:51.759Z,6.28
2022-09-16T05:02:55.077Z,4.97
2022-09-16T05:04:57.262Z,4.75
2022-09-16T05:06:59.565Z,6.88
2022-09-16T05:09:02.219Z,5.05
2022-09-16T05:11:10.244Z,5.13
2022-09-16T05:13:12.161Z,6.93
2022-09-16T05:15:14.438Z,4.13
2022-09-16T05:17:39.524Z,7.20
2022-09-16T05:19:38.384Z,5.72
2022-09-16T05:21:41.335Z,6.88
2022-09-16T05:23:47.029Z,8.07
2022-09-16T05:25:49.787Z,7.63
2022-09-16T05:27:52.175Z,6.05
2022-09-16T05:29:54.245Z,6.90
2022-09-16T05:31:58.747Z,6.57
2022-09-16T05:34:11.745Z,5.10
2022-09-16T05:36:18.250Z,4.30
2022-09-16T05:38:20.482Z,4.35
2022-09-16T05:40:23.330Z,4.03
2022-09-16T05:42:25.509Z,6.70
2022-09-16T05:44:28.927Z,4.15
2022-09-16T05:46:30.964Z,5.43
2022-09-16T05:48:34.283Z,3.50
2022-09-16T05:50:38.883Z,4.60
2022-09-16T05:52:41.343Z,8.63
2022-09-16T05:54:43.694Z,6.63
2022-09-16T05:56:46.780Z,5.40
2022-09-16T05:58:49.363Z,4.20
2022-09-16T06:00:52.414Z,5.20
2022-09-16T06:02:54.578Z,3.78
2022-09-16T06:04:56.871Z,3.10
2022-09-16T06:07:00.468Z,3.47
2022-09-16T06:09:29.786Z,3.28
2022-09-16T06:11:32.330Z,5.30
2022-09-16T06:13:37.890Z,4.07
2022-09-16T06:15:40.374Z,3.35
2022-09-16T06:17:42.477Z,4.57
2022-09-16T06:19:44.708Z,3.92
2022-09-16T06:21:47.206Z,4.30
2022-09-16T06:23:50.073Z,3.20
2022-09-16T06:26:22.785Z,3.13
2022-09-16T06:28:25.089Z,3.38
2022-09-16T06:30:31.002Z,4.53
2022-09-16T06:32:34.041Z,3.17
2022-09-16T06:34:36.583Z,5.65
2022-09-16T06:36:44.728Z,2.55
2022-09-16T06:38:48.249Z,4.85
2022-09-16T06:40:51.425Z,4.55
2022-09-16T06:42:58.310Z,2.97
2022-09-16T06:45:04.657Z,3.38
2022-09-16T06:47:07.151Z,3.80
2022-09-16T06:49:11.279Z,5.15
2022-09-16T06:51:16.704Z,3.38
2022-09-16T06:53:18.877Z,3.15
2022-09-16T06:55:21.423Z,4.20
2022-09-16T06:57:23.803Z,4.30
2022-09-16T06:59:26.280Z,3.22
2022-09-16T07:01:30.485Z,5.70
2022-09-16T07:03:33.493Z,2.58
2022-09-16T07:05:35.977Z,3.15
2022-09-16T07:07:39.751Z,2.60
2022-09-16T07:09:42.217Z,3.17
2022-09-16T07:11:44.854Z,3.33
2022-09-16T07:13:48.729Z,4.82
2022-09-16T07:16:11.766Z,2.95
2022-09-16T07:18:13.798Z,3.95
2022-09-16T07:20:16.462Z,4.80
2022-09-16T07:22:21.162Z,3.78
2022-09-16T07:24:23.612Z,2.67
2022-09-16T07:26:28.665Z,3.05
2022-09-16T07:28:31.679Z,4.35
2022-09-16T07:30:34.596Z,5.95
2022-09-16T07:32:36.966Z,3.67
2022-09-16T07:34:41.495Z,4.38
2022-09-16T07:36:49.184Z,4.63
2022-09-16T07:38:52.832Z,3.40
2022-09-16T07:40:55.354Z,4.28
2022-09-16T07:42:58.324Z,4.28
2022-09-16T07:45:00.486Z,5.47
2022-09-16T07:47:02.831Z,3.38
2022-09-16T07:49:08.236Z,5.03
2022-09-16T07:51:13.389Z,3.85
2022-09-16T07:53:18.187Z,2.88
2022-09-16T07:55:20.773Z,3.30
2022-09-16T07:57:25.519Z,4.22
2022-09-16T07:59:27.956Z,3.47
2022-09-16T08:01:33.502Z,3.40
2022-09-16T08:03:37.597Z,3.70
2022-09-16T08:05:42.860Z,3.15
2022-09-16T08:07:45.137Z,4.80
2022-09-16T08:09:50.842Z,7.03
2022-09-16T08:11:53.999Z,3.55
2022-09-16T08:13:59.025Z,4.97
2022-09-16T08:16:18.685Z,5.00
2022-09-16T08:18:21.050Z,3.75
2022-09-16T08:20:24.744Z,4.60
2022-09-16T08:22:27.365Z,6.68
2022-09-16T08:24:29.468Z,4.25
2022-09-16T08:26:32.156Z,3.60
2022-09-16T08:28:45.273Z,5.18
2022-09-16T08:30:53.581Z,5.35
2022-09-16T08:32:59.670Z,5.82
2022-09-16T08:35:02.503Z,3.05
2022-09-16T08:37:07.265Z,3.50
2022-09-16T08:39:11.975Z,4.45
2022-09-16T08:41:14.057Z,5.72
2022-09-16T08:43:30.335Z,2.70
2022-09-16T08:45:54.528Z,3.33
2022-09-16T08:48:08.268Z,2.90
2022-09-16T08:50:29.334Z,3.83
2022-09-16T08:52:35.583Z,3.40
2022-09-16T08:54:52.792Z,4.10
2022-09-16T08:57:00.481Z,4.55
2022-09-16T08:59:10.558Z,2.92
2022-09-16T09:01:23.548Z,3.95
2022-09-16T09:03:39.122Z,3.03
2022-09-16T09:05:54.148Z,4.47
2022-09-16T09:08:34.896Z,4.35
2022-09-16T09:10:51.631Z,2.80
2022-09-16T09:13:05.981Z,2.55
2022-09-16T09:15:22.879Z,2.10
2022-09-16T09:18:15.713Z,3.30
2022-09-16T09:20:44.227Z,2.45
2022-09-16T09:23:18.169Z,2.58
2022-09-16T09:25:29.883Z,2.45
2022-09-16T09:27:36.627Z,4.03
2022-09-16T09:30:23.694Z,3.50
2022-09-16T09:32:53.577Z,2.65
2022-09-16T09:35:05.920Z,3.70
2022-09-16T09:37:42.083Z,5.43
2022-09-16T09:40:15.066Z,3.38
2022-09-16T09:42:23.738Z,2.70
2022-09-16T09:44:50.686Z,2.60
2022-09-16T09:46:57.741Z,2.88
2022-09-16T09:49:11.825Z,2.55
2022-09-16T09:51:52.486Z,3.25
2022-09-16T09:54:01.452Z,3.33
2022-09-16T09:56:24.575Z,4.65
2022-09-16T09:58:38.084Z,2.63
2022-09-16T10:00:40.396Z,4.25
2022-09-16T10:02:49.526Z,4.70
2022-09-16T10:04:52.342Z,3.50
2022-09-16T10:06:57.142Z,2.83
2022-09-16T10:09:00.389Z,3.05
2022-09-16T10:11:14.915Z,2.42
2022-09-16T10:13:18.005Z,3.72
2022-09-16T10:15:32.023Z,2.80
2022-09-16T10:17:34.501Z,2.83
2022-09-16T10:20:00.287Z,3.50
2022-09-16T10:22:10.018Z,2.70
2022-09-16T10:24:34.945Z,2.85
2022-09-16T10:26:41.342Z,2.95
2022-09-16T10:29:03.906Z,2.67
2022-09-16T10:31:08.876Z,2.40
2022-09-16T10:33:20.412Z,2.70
2022-09-16T10:35:29.180Z,2.55
2022-09-16T10:37:31.273Z,3.17
2022-09-16T10:39:34.232Z,2.60
2022-09-16T10:41:47.813Z,3.65
2022-09-16T10:43:53.772Z,2.97
2022-09-16T10:45:56.434Z,3.90
2022-09-16T10:48:07.059Z,5.13
2022-09-16T10:50:18.450Z,3.60
2022-09-16T10:52:26.634Z,4.10
2022-09-16T10:54:28.865Z,5.35
2022-09-16T10:56:48.809Z,3.45
2022-09-16T10:59:09.775Z,3.38
2022-09-16T11:01:12.722Z,2.60
2022-09-16T11:03:42.934Z,4.63
2022-09-16T11:06:15.939Z,3.00
2022-09-16T11:08:27.220Z,3.13
2022-09-16T11:10:38.108Z,2.65
2022-09-16T11:13:04.578Z,2.72
2022-09-16T11:15:24.332Z,3.10
2022-09-16T11:17:44.590Z,2.85
2022-09-16T11:19:54.819Z,2.60
2022-09-16T11:22:21.039Z,4.15
2022-09-16T11:25:10.564Z,3.53
2022-09-16T11:27:18.172Z,4.97
2022-09-16T11:29:52.402Z,2.42
2022-09-16T11:32:09.218Z,2.80
2022-09-16T11:35:02.876Z,3.55
2022-09-16T11:37:22.230Z,3.58
2022-09-16T11:39:39.108Z,3.10
2022-09-16T11:42:20.105Z,2.35
2022-09-16T11:44:31.479Z,4.70
2022-09-16T11:46:47.095Z,3.08
2022-09-16T11:49:20.415Z,3.08
2022-09-16T11:52:01.301Z,3.70
2022-09-16T11:54:33.990Z,5.78
2022-09-16T11:56:52.459Z,2.33
2022-09-16T11:59:03.727Z,3.03
2022-09-16T12:01:32.033Z,2.72
2022-09-16T12:03:56.780Z,2.83
2022-09-16T12:06:06.111Z,3.65
2022-09-16T12:08:13.513Z,4.05
2022-09-16T12:10:38.366Z,2.97
2022-09-16T12:12:46.794Z,5.15
2022-09-16T12:14:55.925Z,3.25
2022-09-16T12:17:11.838Z,4.15
2022-09-16T12:19:22.317Z,5.75
2022-09-16T12:21:30.234Z,2.53
2022-09-16T12:23:36.552Z,4.97
2022-09-16T12:25:46.427Z,3.70
2022-09-16T12:27:54.802Z,4.10
2022-09-16T12:30:06.174Z,2.70
2022-09-16T12:32:31.813Z,4.80
2022-09-16T12:34:44.488Z,2.53
2022-09-16T12:36:56.314Z,2.65
2022-09-16T12:38:59.789Z,5.68
2022-09-16T12:41:28.814Z,2.55
2022-09-16T12:44:06.555Z,3.25
2022-09-16T12:46:19.037Z,2.80
2022-09-16T12:48:24.003Z,3.38
2022-09-16T12:50:45.010Z,5.80
2022-09-16T12:53:29.020Z,2.60
2022-09-16T12:55:59.158Z,3.30
2022-09-16T12:58:34.220Z,2.92
2022-09-16T13:00:55.456Z,3.22
2022-09-16T13:03:27.876Z,2.78
2022-09-16T13:05:37.531Z,3.78
2022-09-16T13:07:40.504Z,4.68
2022-09-16T13:09:45.003Z,3.17
2022-09-16T13:14:26.086Z,2.72
2022-09-16T13:17:31.397Z,3.03
2022-09-16T13:19:40.205Z,2.50
2022-09-16T13:21:44.924Z,4.07
2022-09-16T13:23:52.488Z,2.53
2022-09-16T13:26:01.492Z,2.60
2022-09-16T13:28:41.910Z,2.55
2022-09-16T13:30:44.316Z,4.65
2022-09-16T13:32:58.232Z,3.13
2022-09-16T13:35:02.080Z,5.40
2022-09-16T13:37:15.716Z,3.28
2022-09-16T13:39:35.740Z,5.22
2022-09-16T13:41:39.583Z,3.60
2022-09-16T13:43:47.442Z,3.65
2022-09-16T13:45:49.676Z,3.15
2022-09-16T13:47:52.125Z,4.60
2022-09-16T13:49:59.414Z,3.28
2022-09-16T13:52:11.891Z,3.13
2022-09-16T13:54:19.846Z,2.90
2022-09-16T13:56:21.844Z,2.92
2022-09-16T13:58:43.529Z,2.60
2022-09-16T14:01:09.008Z,4.32
2022-09-16T14:03:42.131Z,3.30
2022-09-16T14:06:03.107Z,5.13
2022-09-16T14:08:19.665Z,4.43
2022-09-16T14:10:59.069Z,3.20
2022-09-16T14:13:17.271Z,2.83
2022-09-16T14:15:22.647Z,3.28
2022-09-16T14:17:32.386Z,3.08
2022-09-16T14:19:37.947Z,3.22
2022-09-16T14:21:40.121Z,2.70
2022-09-16T14:23:42.157Z,3.30
2022-09-16T14:25:44.207Z,3.58
2022-09-16T14:27:46.841Z,5.53
2022-09-16T14:29:57.015Z,2.65
2022-09-16T14:31:59.432Z,2.58
2022-09-16T14:34:07.655Z,3.15
2022-09-16T14:36:44.320Z,2.75
2022-09-16T14:39:07.014Z,4.22
2022-09-16T14:41:12.847Z,2.83
2022-09-16T14:43:19.313Z,5.82
2022-09-16T14:45:22.462Z,2.83
2022-09-16T14:47:47.410Z,3.42
2022-09-16T14:49:56.970Z,3.25
2022-09-16T14:52:04.376Z,2.35
2022-09-16T14:54:12.783Z,3.40
2022-09-16T14:56:20.100Z,3.30
2022-09-16T14:58:24.718Z,2.20
2022-09-16T15:00:33.928Z,3.08
2022-09-16T15:03:05.219Z,4.38
2022-09-16T15:05:23.492Z,3.08
2022-09-16T15:07:34.079Z,3.20
2022-09-16T15:09:47.735Z,2.40
2022-09-16T15:11:55.726Z,3.08
2022-09-16T15:13:59.077Z,2.50
2022-09-16T15:16:09.400Z,2.70
2022-09-16T15:18:27.388Z,2.90
2022-09-16T15:20:33.492Z,3.50
2022-09-16T15:22:40.833Z,3.08
2022-09-16T15:24:44.178Z,3.10
2022-09-16T15:26:49.417Z,2.88
2022-09-16T15:29:04.483Z,2.97
2022-09-16T15:31:08.262Z,5.20
2022-09-16T15:33:42.140Z,4.10
2022-09-16T15:35:52.721Z,3.13
2022-09-16T15:37:56.043Z,3.50
2022-09-16T15:40:29.099Z,3.15
2022-09-16T15:42:31.821Z,6.30
2022-09-16T15:44:37.749Z,6.22
2022-09-16T15:46:48.336Z,4.57
2022-09-16T15:48:58.516Z,2.90
2022-09-16T15:51:09.598Z,2.33
2022-09-16T15:53:41.999Z,3.03
2022-09-16T15:55:56.886Z,5.82
2022-09-16T15:58:12.105Z,5.35
2022-09-16T16:00:16.377Z,2.45
2022-09-16T16:02:26.514Z,4.28
2022-09-16T16:04:32.018Z,3.33
2022-09-16T16:06:57.238Z,3.80
2022-09-16T16:09:02.754Z,3.15
2022-09-16T16:11:16.557Z,4.28
2022-09-16T16:13:19.086Z,2.72
2022-09-16T16:15:25.797Z,3.03
2022-09-16T16:17:28.200Z,2.30
2022-09-16T16:19:30.975Z,3.67
2022-09-16T16:21:38.880Z,5.70
2022-09-16T16:23:41.188Z,6.47
2022-09-16T16:25:43.488Z,6.85
2022-09-16T16:27:45.895Z,7.70
2022-09-16T16:29:48.350Z,6.22
2022-09-16T16:32:02.000Z,8.02
2022-09-16T16:34:07.224Z,6.75
2022-09-16T16:36:09.566Z,7.75
2022-09-16T16:38:11.711Z,5.43
2022-09-16T16:40:14.400Z,7.13
2022-09-16T16:42:17.142Z,5.88
2022-09-16T16:44:24.451Z,4.50
2022-09-16T16:46:28.051Z,4.35
2022-09-16T16:48:31.046Z,3.90
2022-09-16T16:50:33.238Z,4.57
2022-09-16T16:52:56.520Z,4.22
2022-09-16T16:54:59.375Z,5.97
2022-09-16T16:57:04.369Z,4.78
2022-09-16T16:59:12.339Z,3.90
2022-09-16T17:01:19.210Z,5.43
2022-09-16T17:03:22.862Z,3.55
2022-09-16T17:05:25.185Z,3.42
2022-09-16T17:07:28.298Z,8.05
2022-09-16T17:09:31.059Z,3.63
2022-09-16T17:11:34.180Z,2.95
2022-09-16T17:13:38.514Z,8.77
2022-09-16T17:15:41.587Z,6.00
2022-09-16T17:17:44.517Z,6.63
2022-09-16T17:19:46.634Z,6.47
2022-09-16T17:21:53.876Z,7.25
2022-09-16T17:23:56.677Z,6.93
2022-09-16T17:26:01.906Z,5.72
2022-09-16T17:28:04.016Z,8.60
2022-09-16T17:30:06.828Z,6.45
2022-09-16T17:32:08.710Z,9.23
2022-09-16T17:34:14.122Z,8.52
2022-09-16T17:36:19.790Z,11.30
2022-09-16T17:38:22.284Z,10.15
2022-09-16T17:40:24.885Z,7.47
2022-09-16T17:42:27.433Z,9.98
2022-09-16T17:44:29.859Z,9.82
2022-09-16T17:46:34.633Z,9.18
2022-09-16T17:48:37.878Z,10.45
2022-09-16T17:50:40.521Z,9.20
2022-09-16T17:52:43.649Z,8.27
2022-09-16T17:54:46.246Z,8.88
2022-09-16T17:56:48.699Z,9.40
2022-09-16T17:58:53.057Z,12.25
2022-09-16T18:00:55.483Z,9.57
2022-09-16T18:02:57.780Z,9.32
2022-09-16T18:05:00.416Z,8.48
2022-09-16T18:07:02.836Z,10.38
2022-09-16T18:09:07.490Z,8.38
2022-09-16T18:11:11.567Z,11.63
2022-09-16T18:13:13.851Z,8.00
2022-09-16T18:15:16.050Z,10.75
2022-09-16T18:17:18.938Z,7.60
2022-09-16T18:19:21.143Z,7.95
2022-09-16T18:21:24.715Z,8.75
2022-09-16T18:23:30.000Z,10.73
2022-09-16T18:25:34.386Z,8.02
2022-09-16T18:27:39.573Z,9.27
2022-09-16T18:29:44.568Z,10.80
2022-09-16T18:31:48.445Z,10.38
2022-09-16T18:33:54.949Z,8.00
2022-09-16T18:36:06.251Z,8.75
2022-09-16T18:38:13.139Z,6.80
2022-09-16T18:40:16.945Z,7.32
2022-09-16T18:42:19.150Z,6.72
2022-09-16T18:44:25.365Z,7.07
2022-09-16T18:46:30.709Z,6.28
2022-09-16T18:48:33.003Z,6.72
2022-09-16T18:50:37.974Z,6.55
2022-09-16T18:52:40.665Z,5.20
2022-09-16T18:54:45.711Z,5.82
2022-09-16T18:56:48.306Z,12.48
2022-09-16T18:59:17.298Z,10.27
2022-09-16T19:01:27.226Z,16.08
2022-09-16T19:03:29.800Z,12.48
2022-09-16T19:05:32.141Z,12.48
2022-09-16T19:07:34.353Z,9.07
2022-09-16T19:09:39.972Z,7.28
2022-09-16T19:11:42.450Z,11.48
2022-09-16T19:13:45.247Z,9.40
2022-09-16T19:15:47.992Z,9.25
2022-09-16T19:17:51.123Z,8.18
2022-09-16T19:19:53.426Z,5.43
2022-09-16T19:21:55.853Z,5.35
2022-09-16T19:24:03.631Z,5.47
2022-09-16T19:26:06.250Z,4.75
2022-09-16T19:28:09.085Z,7.10
2022-09-16T19:30:11.835Z,3.95
2022-09-16T19:32:14.450Z,4.82
2022-09-16T19:34:17.378Z,4.38
2022-09-16T19:36:25.037Z,4.65
2022-09-16T19:38:29.107Z,7.53
2022-09-16T19:40:31.735Z,6.35
2022-09-16T19:42:34.065Z,7.15
2022-09-16T19:44:36.314Z,7.63
2022-09-16T19:46:40.249Z,7.80
2022-09-16T19:48:45.081Z,8.35
2022-09-16T19:50:53.542Z,6.63
2022-09-16T19:52:55.932Z,7.85
2022-09-16T19:54:58.069Z,6.43
2022-09-16T19:57:03.211Z,7.75
2022-09-16T19:59:06.164Z,9.63
2022-09-16T20:01:10.267Z,6.55
2022-09-16T20:03:12.677Z,6.07
2022-09-16T20:05:15.615Z,9.98
2022-09-16T20:07:20.500Z,6.03
2022-09-16T20:09:22.876Z,6.30
2022-09-16T20:11:27.749Z,7.40
2022-09-16T20:13:31.475Z,7.25
2022-09-16T20:15:33.540Z,8.23
2022-09-16T20:17:38.447Z,5.97
2022-09-16T20:19:40.790Z,4.97
2022-09-16T20:21:43.563Z,7.15
2022-09-16T20:23:46.733Z,5.50
2022-09-16T20:25:56.170Z,7.03
2022-09-16T20:28:10.812Z,6.18
2022-09-16T20:30:13.438Z,7.13
2022-09-16T20:32:16.007Z,5.60
2022-09-16T20:34:18.500Z,4.70
2022-09-16T20:36:22.964Z,5.32
2022-09-16T20:38:25.210Z,5.53
2022-09-16T20:40:27.820Z,6.03
2022-09-16T20:42:33.760Z,5.70
2022-09-16T20:44:36.239Z,7.70
2022-09-16T20:46:43.108Z,6.95
2022-09-16T20:48:45.738Z,7.15
2022-09-16T20:50:50.363Z,9.50
2022-09-16T20:52:52.973Z,7.28
2022-09-16T20:54:55.051Z,8.23
2022-09-16T20:56:58.113Z,5.90
2022-09-16T20:59:00.754Z,6.03
2022-09-16T21:01:08.373Z,6.20
2022-09-16T21:03:14.408Z,6.63
2022-09-16T21:05:16.673Z,9.77
2022-09-16T21:07:19.045Z,9.38
2022-09-16T21:09:21.242Z,5.82
2022-09-16T21:11:26.460Z,7.88
2022-09-16T21:13:28.608Z,4.80
2022-09-16T21:15:31.675Z,7.32
2022-09-16T21:17:34.509Z,9.07
2022-09-16T21:19:36.707Z,5.50
2022-09-16T21:21:41.258Z,4.35
2022-09-16T21:23:47.343Z,5.78
2022-09-16T21:25:49.879Z,5.53
2022-09-16T21:27:52.536Z,5.20
2022-09-16T21:29:54.660Z,6.95
2022-09-16T21:31:57.596Z,5.82
2022-09-16T21:34:03.296Z,6.25
2022-09-16T21:36:07.144Z,4.07
2022-09-16T21:38:09.376Z,6.55
2022-09-16T21:40:13.074Z,8.75
2022-09-16T21:42:15.627Z,5.47
2022-09-16T21:44:18.281Z,5.45
2022-09-16T21:46:23.247Z,5.35
2022-09-16T21:48:27.730Z,6.40
2022-09-16T21:50:31.464Z,7.70
2022-09-16T21:52:34.120Z,4.88
2022-09-16T21:54:36.392Z,4.40
2022-09-16T21:56:40.497Z,7.88
2022-09-16T21:58:43.204Z,3.90
2022-09-16T22:00:45.218Z,7.78
2022-09-16T22:02:47.479Z,6.50
2022-09-16T22:04:49.572Z,4.70
2022-09-16T22:06:55.760Z,5.22
2022-09-16T22:09:02.125Z,9.50
2022-09-16T22:11:07.744Z,9.88
2022-09-16T22:13:10.295Z,6.40
2022-09-16T22:15:16.759Z,12.80
2022-09-16T22:17:18.856Z,6.68
2022-09-16T22:19:20.864Z,6.65
2022-09-16T22:21:24.613Z,6.95
2022-09-16T22:23:26.952Z,5.60
2022-09-16T22:25:29.034Z,4.45
2022-09-16T22:27:31.077Z,4.97
2022-09-16T22:29:33.767Z,5.07
2022-09-16T22:31:38.315Z,6.15
2022-09-16T22:33:42.752Z,6.20
2022-09-16T22:35:44.916Z,4.28
2022-09-16T22:37:48.946Z,9.13
2022-09-16T22:39:51.609Z,8.40
2022-09-16T22:41:54.300Z,6.97
2022-09-16T22:43:56.755Z,8.38
2022-09-16T22:46:06.312Z,5.95
2022-09-16T22:48:08.425Z,8.00
2022-09-16T22:50:13.279Z,6.78
2022-09-16T22:52:15.418Z,7.35
2022-09-16T22:54:19.765Z,6.95
2022-09-16T22:56:28.673Z,6.30
2022-09-16T22:58:32.080Z,6.30
2022-09-16T23:00:38.521Z,7.43
2022-09-16T23:02:42.517Z,5.60
2022-09-16T23:04:44.787Z,4.82
2022-09-16T23:06:47.463Z,8.57
2022-09-16T23:08:49.859Z,10.63
2022-09-16T23:10:52.538Z,7.38
2022-09-16T23:12:55.572Z,12.20
2022-09-16T23:14:58.980Z,6.85
2022-09-16T23:17:00.966Z,10.05
2022-09-16T23:19:06.052Z,5.18
2022-09-16T23:21:13.318Z,10.35
2022-09-16T23:23:15.344Z,4.70
2022-09-16T23:25:17.358Z,8.98
2022-09-16T23:27:19.423Z,5.47
2022-09-16T23:29:24.129Z,4.57
2022-09-16T23:31:29.760Z,7.32
2022-09-16T23:33:32.354Z,6.13
2022-09-16T23:35:35.021Z,6.57
2022-09-16T23:37:37.355Z,7.60
2022-09-16T23:39:41.687Z,9.57
2022-09-16T23:41:45.241Z,4.78
2022-09-16T23:43:49.309Z,5.18
2022-09-16T23:45:52.106Z,9.93
2022-09-16T23:47:54.432Z,6.95
2022-09-16T23:49:56.666Z,7.97
2022-09-16T23:51:59.002Z,5.78
2022-09-16T23:54:01.197Z,4.45
2022-09-16T23:56:07.760Z,4.50
2022-09-16T23:58:14.122Z,7.35
